createdAt,value
2022-11-17T00:00:19.666Z,34.83
2022-11-17T00:02:47.927Z,35.27
2022-11-17T00:05:15.218Z,35.70
2022-11-17T00:07:44.809Z,35.47
2022-11-17T00:10:15.439Z,35.77
2022-11-17T00:13:01.434Z,34.43
2022-11-17T00:15:28.633Z,36.43
2022-11-17T00:18:14.035Z,37.50
2022-11-17T00:21:00.460Z,35.67
2022-11-17T00:23:47.176Z,37.60
2022-11-17T00:26:19.154Z,37.70
2022-11-17T00:28:46.220Z,36.80
2022-11-17T00:31:33.185Z,36.00
2022-11-17T00:34:06.444Z,36.20
2022-11-17T00:36:40.072Z,35.43
2022-11-17T00:39:08.426Z,36.30
2022-11-17T00:41:35.814Z,38.23
2022-11-17T00:44:02.698Z,37.83
2022-11-17T00:46:30.101Z,37.77
2022-11-17T00:48:56.982Z,37.27
2022-11-17T00:51:25.546Z,36.20
2022-11-17T00:53:52.755Z,38.37
2022-11-17T00:56:19.736Z,35.87
2022-11-17T00:58:46.757Z,39.50
2022-11-17T01:01:14.380Z,38.97
2022-11-17T01:03:41.562Z,39.33
2022-11-17T01:06:18.539Z,38.47
2022-11-17T01:08:45.821Z,37.80
2022-11-17T01:11:13.942Z,36.97
2022-11-17T01:13:42.070Z,38.00
2022-11-17T01:16:14.373Z,39.03
2022-11-17T01:18:42.507Z,38.23
2022-11-17T01:21:21.870Z,39.37
2022-11-17T01:23:51.469Z,39.17
2022-11-17T01:26:20.681Z,39.00
2022-11-17T01:28:48.765Z,38.43
2022-11-17T01:31:20.775Z,37.30
2022-11-17T01:33:48.692Z,38.13
2022-11-17T01:36:22.124Z,36.53
2022-11-17T01:38:49.459Z,38.03
2022-11-17T01:41:25.184Z,38.23
2022-11-17T01:43:54.965Z,41.43
2022-11-17T01:46:37.221Z,41.50
2022-11-17T01:49:04.040Z,41.17
2022-11-17T01:51:35.356Z,42.37
2022-11-17T01:54:02.937Z,38.40
2022-11-17T01:56:38.917Z,39.70
2022-11-17T01:59:11.550Z,41.23
2022-11-17T02:01:55.619Z,39.80
2022-11-17T02:04:26.659Z,41.53
2022-11-17T02:07:14.493Z,38.97
2022-11-17T02:09:42.581Z,38.53
2022-11-17T02:12:12.952Z,37.77
2022-11-17T02:14:40.521Z,40.33
2022-11-17T02:17:14.048Z,36.90
2022-11-17T02:19:44.382Z,37.87
2022-11-17T02:22:33.746Z,38.47
2022-11-17T02:25:15.714Z,36.43
2022-11-17T02:28:11.458Z,37.33
2022-11-17T02:30:49.200Z,36.43
2022-11-17T02:33:37.811Z,35.20
2022-11-17T02:36:11.820Z,36.97
2022-11-17T02:38:56.174Z,35.73
2022-11-17T02:41:58.378Z,39.00
2022-11-17T02:44:33.707Z,36.93
2022-11-17T02:47:20.286Z,39.33
2022-11-17T02:49:53.804Z,39.57
2022-11-17T02:52:22.027Z,38.93
2022-11-17T02:54:48.929Z,41.47
2022-11-17T02:57:33.420Z,39.43
2022-11-17T03:00:04.238Z,40.57
2022-11-17T03:02:53.068Z,40.23
2022-11-17T03:05:26.841Z,40.83
2022-11-17T03:08:11.990Z,39.70
2022-11-17T03:11:02.959Z,39.90
2022-11-17T03:13:48.471Z,42.43
2022-11-17T03:16:27.682Z,39.90
2022-11-17T03:19:09.656Z,39.13
2022-11-17T03:22:09.407Z,39.17
2022-11-17T03:24:49.424Z,39.77
2022-11-17T03:27:25.610Z,39.23
2022-11-17T03:29:59.787Z,37.57
2022-11-17T03:32:31.004Z,38.13
2022-11-17T03:35:03.305Z,36.60
2022-11-17T03:37:34.064Z,35.57
2022-11-17T03:40:09.045Z,37.93
2022-11-17T03:42:40.931Z,34.70
2022-11-17T03:45:22.078Z,34.37
2022-11-17T03:47:53.748Z,33.13
2022-11-17T03:50:30.321Z,34.43
2022-11-17T03:52:57.514Z,34.30
2022-11-17T03:55:30.961Z,34.90
2022-11-17T03:58:05.276Z,37.17
2022-11-17T04:00:34.956Z,37.57
2022-11-17T04:03:01.808Z,39.73
2022-11-17T04:05:28.616Z,39.50
2022-11-17T04:07:55.514Z,33.67
2022-11-17T04:10:25.854Z,36.17
2022-11-17T04:13:12.807Z,35.20
2022-11-17T04:15:58.963Z,34.77
2022-11-17T04:18:26.656Z,35.73
2022-11-17T04:20:55.918Z,38.27
2022-11-17T04:23:24.044Z,37.50
2022-11-17T04:26:12.911Z,35.30
2022-11-17T04:28:50.917Z,37.23
2022-11-17T04:31:38.044Z,35.07
2022-11-17T04:34:06.135Z,37.73
2022-11-17T04:36:37.186Z,41.53
2022-11-17T04:39:04.444Z,49.43
2022-11-17T04:41:49.823Z,55.40
2022-11-17T04:44:18.177Z,83.17
2022-11-17T04:46:46.271Z,84.30
2022-11-17T04:49:15.090Z,54.10
2022-11-17T04:51:42.591Z,52.70
2022-11-17T04:54:11.056Z,49.73
2022-11-17T04:56:39.632Z,48.27
2022-11-17T04:59:07.232Z,45.80
2022-11-17T05:01:34.388Z,45.53
2022-11-17T05:04:13.179Z,45.00
2022-11-17T05:06:43.812Z,43.50
2022-11-17T05:09:13.745Z,43.53
2022-11-17T05:12:00.320Z,43.67
2022-11-17T05:14:28.623Z,41.43
2022-11-17T05:17:11.952Z,43.27
2022-11-17T05:19:40.931Z,45.00
2022-11-17T05:22:27.857Z,42.80
2022-11-17T05:24:56.259Z,41.73
2022-11-17T05:27:23.727Z,42.37
2022-11-17T05:29:50.580Z,41.53
2022-11-17T05:32:17.893Z,42.03
2022-11-17T05:34:45.127Z,41.47
2022-11-17T05:37:12.314Z,39.73
2022-11-17T05:39:39.181Z,39.57
2022-11-17T05:42:06.260Z,41.07
2022-11-17T05:44:33.095Z,45.00
2022-11-17T05:47:02.410Z,41.40
2022-11-17T05:49:33.364Z,37.63
2022-11-17T05:52:00.933Z,42.57
2022-11-17T05:54:27.869Z,43.40
2022-11-17T05:57:01.065Z,41.77
2022-11-17T05:59:46.062Z,48.23
2022-11-17T06:02:21.517Z,48.70
2022-11-17T06:04:49.700Z,38.73
2022-11-17T06:07:18.080Z,33.07
2022-11-17T06:09:46.371Z,34.43
2022-11-17T06:12:13.420Z,33.67
2022-11-17T06:14:40.273Z,33.23
2022-11-17T06:17:22.130Z,32.70
2022-11-17T06:19:57.962Z,33.70
2022-11-17T06:22:27.608Z,31.10
2022-11-17T06:24:55.611Z,34.27
2022-11-17T06:27:23.274Z,34.53
2022-11-17T06:29:50.455Z,36.47
2022-11-17T06:32:18.286Z,35.73
2022-11-17T06:34:54.832Z,34.70
2022-11-17T06:37:25.079Z,36.97
2022-11-17T06:39:52.423Z,35.73
2022-11-17T06:42:19.605Z,33.07
2022-11-17T06:44:46.570Z,34.43
2022-11-17T06:47:13.456Z,31.27
2022-11-17T06:49:40.380Z,31.53
2022-11-17T06:52:09.280Z,32.50
2022-11-17T06:54:36.240Z,32.00
2022-11-17T06:57:03.993Z,30.40
2022-11-17T06:59:30.909Z,30.80
2022-11-17T07:01:57.757Z,28.67
2022-11-17T07:08:00.395Z,33.53
2022-11-17T07:10:28.574Z,31.47
2022-11-17T07:12:58.575Z,33.40
2022-11-17T07:15:27.200Z,33.37
2022-11-17T07:17:54.327Z,33.40
2022-11-17T07:20:21.521Z,34.43
2022-11-17T07:22:48.803Z,34.47
2022-11-17T07:25:21.055Z,33.87
2022-11-17T07:27:57.188Z,34.40
2022-11-17T07:30:24.240Z,32.83
2022-11-17T07:32:54.641Z,33.10
2022-11-17T07:35:22.089Z,32.40
2022-11-17T07:37:49.144Z,32.40
2022-11-17T07:40:16.353Z,32.17
2022-11-17T07:42:48.913Z,37.03
2022-11-17T07:45:17.102Z,34.27
2022-11-17T07:47:44.104Z,32.97
2022-11-17T07:50:11.606Z,31.20
2022-11-17T07:52:41.398Z,30.83
2022-11-17T07:55:08.785Z,30.23
2022-11-17T07:57:36.728Z,30.53
2022-11-17T08:00:07.556Z,29.10
2022-11-17T08:02:43.846Z,30.70
2022-11-17T08:05:12.402Z,31.83
2022-11-17T08:07:39.557Z,31.00
2022-11-17T08:10:08.312Z,31.87
2022-11-17T08:12:35.372Z,32.33
2022-11-17T08:15:02.505Z,38.23
2022-11-17T08:17:31.573Z,38.43
2022-11-17T08:20:00.956Z,40.57
2022-11-17T08:22:29.899Z,45.60
2022-11-17T08:24:56.877Z,41.70
2022-11-17T08:27:25.086Z,41.53
2022-11-17T08:29:52.871Z,41.07
2022-11-17T08:32:20.449Z,40.07
2022-11-17T08:34:47.744Z,38.23
2022-11-17T08:37:15.004Z,39.07
2022-11-17T08:39:42.046Z,42.53
2022-11-17T08:42:09.142Z,41.87
2022-11-17T08:44:37.495Z,42.63
2022-11-17T08:47:04.414Z,38.30
2022-11-17T08:49:31.250Z,40.83
2022-11-17T08:51:58.177Z,39.00
2022-11-17T08:54:25.159Z,38.60
2022-11-17T08:56:57.353Z,38.77
2022-11-17T08:59:26.060Z,35.43
2022-11-17T09:01:53.299Z,37.73
2022-11-17T09:04:20.412Z,36.43
2022-11-17T09:06:47.379Z,36.63
2022-11-17T09:09:17.083Z,33.33
2022-11-17T09:11:44.023Z,33.63
2022-11-17T09:14:10.972Z,32.90
2022-11-17T09:16:38.403Z,33.57
2022-11-17T09:19:05.843Z,33.97
2022-11-17T09:21:34.078Z,31.70
2022-11-17T09:24:01.337Z,30.93
2022-11-17T09:26:28.335Z,30.13
2022-11-17T09:28:55.495Z,31.80
2022-11-17T09:31:23.682Z,30.73
2022-11-17T09:33:50.833Z,32.00
2022-11-17T09:36:18.323Z,33.57
2022-11-17T09:38:46.810Z,32.40
2022-11-17T09:41:16.575Z,30.70
2022-11-17T09:43:49.705Z,30.00
2022-11-17T09:46:25.666Z,29.80
2022-11-17T09:49:12.429Z,31.07
2022-11-17T09:51:44.965Z,27.90
2022-11-17T09:54:43.232Z,28.23
2022-11-17T09:57:37.441Z,29.87
2022-11-17T10:00:19.642Z,29.93
2022-11-17T10:02:46.846Z,30.77
2022-11-17T10:05:28.055Z,28.90
2022-11-17T10:08:00.393Z,31.17
2022-11-17T10:10:45.618Z,31.10
2022-11-17T10:13:33.823Z,29.20
2022-11-17T10:16:08.003Z,30.77
2022-11-17T10:18:38.341Z,26.67
2022-11-17T10:21:07.349Z,28.90
2022-11-17T10:23:41.156Z,31.10
2022-11-17T10:26:16.009Z,31.70
2022-11-17T10:28:47.183Z,29.60
2022-11-17T10:31:20.397Z,31.53
2022-11-17T10:33:50.314Z,35.23
2022-11-17T10:36:29.049Z,28.17
2022-11-17T10:38:59.316Z,30.53
2022-11-17T10:41:40.910Z,29.70
2022-11-17T10:44:30.664Z,28.80
2022-11-17T10:47:04.763Z,30.53
2022-11-17T10:49:35.259Z,30.60
2022-11-17T10:52:06.983Z,31.57
2022-11-17T10:54:34.105Z,31.33
2022-11-17T10:57:05.627Z,32.67
2022-11-17T10:59:44.378Z,31.80
2022-11-17T11:02:31.027Z,31.50
2022-11-17T11:05:14.092Z,31.67
2022-11-17T11:07:41.753Z,32.13
2022-11-17T11:10:20.591Z,29.63
2022-11-17T11:13:09.093Z,28.63
2022-11-17T11:15:37.291Z,26.90
2022-11-17T11:18:15.876Z,27.17
2022-11-17T11:21:13.420Z,28.83
2022-11-17T11:23:46.410Z,28.07
2022-11-17T11:26:25.562Z,28.27
2022-11-17T11:29:07.847Z,28.87
2022-11-17T11:32:11.666Z,28.53
2022-11-17T11:34:54.395Z,27.60
2022-11-17T11:37:28.628Z,25.83
2022-11-17T11:40:27.184Z,23.53
2022-11-17T11:43:24.456Z,22.23
2022-11-17T11:46:01.357Z,23.27
2022-11-17T11:48:57.131Z,22.33
2022-11-17T11:51:38.375Z,21.30
2022-11-17T11:54:30.975Z,19.97
2022-11-17T11:56:58.145Z,17.57
2022-11-17T11:59:45.679Z,16.17
2022-11-17T12:02:12.774Z,14.53
2022-11-17T12:04:52.673Z,14.53
2022-11-17T12:07:41.329Z,12.40
2022-11-17T12:10:30.069Z,13.37
2022-11-17T12:13:00.327Z,11.90
2022-11-17T12:15:27.745Z,13.47
2022-11-17T12:18:22.353Z,13.07
2022-11-17T12:20:57.814Z,12.47
2022-11-17T12:23:31.037Z,12.53
2022-11-17T12:26:03.109Z,13.50
2022-11-17T12:28:40.772Z,11.70
2022-11-17T12:31:13.110Z,10.47
2022-11-17T12:33:52.016Z,10.97
2022-11-17T12:36:30.193Z,11.50
2022-11-17T12:38:59.977Z,11.30
2022-11-17T12:41:48.645Z,10.47
2022-11-17T12:44:37.471Z,10.13
2022-11-17T12:47:15.272Z,9.47
2022-11-17T12:49:57.296Z,9.20
2022-11-17T12:52:52.111Z,9.73
2022-11-17T12:55:42.299Z,9.37
2022-11-17T12:58:10.836Z,9.87
2022-11-17T13:00:53.383Z,8.50
2022-11-17T13:03:36.902Z,9.40
2022-11-17T13:06:33.747Z,9.83
2022-11-17T13:09:01.124Z,8.53
2022-11-17T13:11:29.003Z,9.50
2022-11-17T13:14:14.477Z,8.63
2022-11-17T13:16:50.008Z,8.47
2022-11-17T13:19:40.428Z,9.23
2022-11-17T13:22:21.576Z,9.10
2022-11-17T13:24:50.722Z,8.43
2022-11-17T13:27:25.516Z,7.53
2022-11-17T13:29:53.335Z,7.97
2022-11-17T13:32:23.458Z,8.13
2022-11-17T13:34:59.965Z,7.63
2022-11-17T13:37:28.818Z,8.87
2022-11-17T13:40:20.354Z,9.97
2022-11-17T13:42:47.888Z,10.13
2022-11-17T13:45:16.072Z,10.73
2022-11-17T13:47:48.960Z,9.53
2022-11-17T13:50:21.716Z,11.30
2022-11-17T13:52:53.577Z,13.47
2022-11-17T13:55:21.881Z,13.63
2022-11-17T13:57:54.250Z,13.90
2022-11-17T14:00:22.974Z,14.10
2022-11-17T14:02:57.424Z,13.23
2022-11-17T14:05:27.620Z,12.63
2022-11-17T14:07:57.013Z,14.77
2022-11-17T14:10:33.119Z,15.60
2022-11-17T14:13:02.919Z,19.73
2022-11-17T14:15:53.284Z,16.77
2022-11-17T14:18:43.442Z,14.73
2022-11-17T14:21:16.867Z,13.20
2022-11-17T14:23:44.843Z,12.90
2022-11-17T14:26:17.907Z,12.30
2022-11-17T14:28:44.926Z,11.70
2022-11-17T14:31:13.904Z,11.83
2022-11-17T14:33:41.345Z,16.13
2022-11-17T14:36:16.608Z,13.73
2022-11-17T14:38:47.211Z,14.10
2022-11-17T14:41:18.289Z,14.83
2022-11-17T14:44:08.647Z,15.17
2022-11-17T14:46:35.906Z,14.50
2022-11-17T14:49:05.495Z,17.13
2022-11-17T14:51:33.099Z,16.40
2022-11-17T14:54:01.344Z,17.17
2022-11-17T14:56:28.295Z,17.70
2022-11-17T14:59:02.259Z,20.53
2022-11-17T15:01:31.773Z,20.50
2022-11-17T15:04:27.066Z,22.73
2022-11-17T15:07:17.053Z,24.63
2022-11-17T15:09:45.635Z,27.67
2022-11-17T15:12:12.562Z,25.77
2022-11-17T15:14:39.484Z,25.77
2022-11-17T15:17:11.296Z,27.90
2022-11-17T15:19:41.042Z,21.63
2022-11-17T15:22:07.945Z,24.47
2022-11-17T15:24:34.814Z,22.67
2022-11-17T15:27:02.132Z,21.30
2022-11-17T15:29:31.492Z,22.47
2022-11-17T15:31:58.415Z,16.33
2022-11-17T15:34:25.288Z,19.33
2022-11-17T15:36:52.563Z,19.77
2022-11-17T15:39:20.738Z,20.37
2022-11-17T15:41:48.875Z,18.67
2022-11-17T15:44:15.965Z,19.43
2022-11-17T15:46:47.079Z,18.77
2022-11-17T15:49:16.575Z,18.10
2022-11-17T15:51:44.355Z,18.47
2022-11-17T15:54:16.718Z,19.60
2022-11-17T15:56:47.448Z,19.40
2022-11-17T15:59:16.819Z,21.47
2022-11-17T16:01:44.797Z,20.13
2022-11-17T16:04:15.568Z,29.33
2022-11-17T16:06:44.500Z,24.67
2022-11-17T16:09:13.524Z,23.70
2022-11-17T16:11:41.247Z,23.57
2022-11-17T16:14:08.533Z,29.30
2022-11-17T16:16:37.470Z,28.57
2022-11-17T16:19:05.772Z,25.90
2022-11-17T16:21:33.004Z,24.83
2022-11-17T16:24:04.572Z,23.00
2022-11-17T16:26:31.773Z,25.00
2022-11-17T16:29:04.765Z,31.80
2022-11-17T16:31:34.003Z,35.23
2022-11-17T16:34:12.291Z,31.60
2022-11-17T16:36:41.619Z,26.20
2022-11-17T16:39:13.870Z,25.30
2022-11-17T16:41:43.036Z,20.17
2022-11-17T16:44:12.264Z,23.37
2022-11-17T16:46:42.817Z,24.70
2022-11-17T16:49:13.230Z,23.73
2022-11-17T16:51:46.185Z,24.33
2022-11-17T16:54:14.106Z,23.90
2022-11-17T16:56:41.109Z,22.37
2022-11-17T16:59:09.376Z,24.53
2022-11-17T17:01:36.454Z,25.50
2022-11-17T17:04:06.569Z,25.23
2022-11-17T17:06:34.755Z,27.27
2022-11-17T17:09:04.523Z,33.30
2022-11-17T17:11:34.165Z,37.77
2022-11-17T17:14:05.600Z,29.73
2022-11-17T17:16:35.039Z,25.67
2022-11-17T17:19:04.499Z,16.57
2022-11-17T17:21:32.772Z,17.63
2022-11-17T17:24:00.117Z,14.57
2022-11-17T17:26:29.539Z,16.53
2022-11-17T17:29:00.231Z,15.80
2022-11-17T17:31:32.205Z,17.90
2022-11-17T17:34:02.412Z,18.03
2022-11-17T17:36:30.551Z,17.83
2022-11-17T17:39:01.820Z,16.70
2022-11-17T17:41:34.369Z,18.17
2022-11-17T17:44:04.111Z,17.60
2022-11-17T17:46:33.739Z,18.30
2022-11-17T17:49:00.696Z,19.73
2022-11-17T17:51:29.252Z,18.83
2022-11-17T17:53:58.622Z,22.03
2022-11-17T17:56:25.864Z,22.53
2022-11-17T17:58:57.033Z,20.70
2022-11-17T18:01:28.978Z,20.47
2022-11-17T18:04:04.880Z,23.10
2022-11-17T18:06:41.607Z,26.60
2022-11-17T18:09:14.707Z,25.23
2022-11-17T18:11:47.991Z,27.87
2022-11-17T18:14:19.624Z,34.07
2022-11-17T18:16:46.704Z,30.73
2022-11-17T18:19:15.392Z,27.27
2022-11-17T18:21:43.399Z,25.97
2022-11-17T18:24:11.609Z,25.60
2022-11-17T18:26:40.900Z,20.45
2022-11-17T18:29:12.839Z,20.30
2022-11-17T18:31:39.844Z,23.17
2022-11-17T18:34:13.190Z,24.23
2022-11-17T18:36:40.646Z,22.20
2022-11-17T18:39:07.908Z,23.03
2022-11-17T18:41:35.995Z,17.43
2022-11-17T18:44:03.112Z,14.00
2022-11-17T18:46:32.555Z,12.73
2022-11-17T18:49:02.268Z,13.87
2022-11-17T18:51:31.454Z,13.33
2022-11-17T18:54:01.377Z,13.13
2022-11-17T18:56:32.030Z,13.57
2022-11-17T18:58:59.522Z,14.00
2022-11-17T19:01:28.860Z,17.60
2022-11-17T19:03:57.955Z,18.63
2022-11-17T19:06:25.836Z,16.57
2022-11-17T19:08:56.521Z,14.87
2022-11-17T19:11:23.682Z,16.57
2022-11-17T19:13:51.685Z,20.30
2022-11-17T19:16:24.834Z,22.50
2022-11-17T19:18:54.179Z,25.87
2022-11-17T19:21:26.792Z,25.03
2022-11-17T19:23:57.348Z,25.40
2022-11-17T19:26:29.566Z,27.97
2022-11-17T19:29:00.100Z,27.90
2022-11-17T19:31:28.266Z,26.63
2022-11-17T19:33:58.037Z,23.77
2022-11-17T19:36:30.420Z,22.07
2022-11-17T19:38:59.677Z,17.23
2022-11-17T19:41:29.213Z,17.33
2022-11-17T19:43:58.433Z,16.97
2022-11-17T19:46:28.959Z,18.20
2022-11-17T19:48:59.655Z,19.07
2022-11-17T19:51:29.416Z,14.63
2022-11-17T19:53:58.796Z,13.87
2022-11-17T19:56:26.883Z,14.70
2022-11-17T19:58:54.289Z,15.93
2022-11-17T20:01:24.171Z,17.03
2022-11-17T20:03:53.229Z,17.63
2022-11-17T20:06:25.152Z,18.33
2022-11-17T20:08:52.210Z,17.47
2022-11-17T20:11:23.350Z,16.63
2022-11-17T20:13:50.810Z,15.70
2022-11-17T20:16:21.573Z,17.57
2022-11-17T20:18:51.030Z,16.17
2022-11-17T20:21:18.963Z,15.77
2022-11-17T20:23:46.830Z,16.23
2022-11-17T20:26:18.794Z,16.20
2022-11-17T20:28:46.264Z,18.33
2022-11-17T20:31:21.517Z,17.47
2022-11-17T20:33:52.067Z,16.17
2022-11-17T20:36:20.934Z,18.00
2022-11-17T20:39:02.138Z,19.67
2022-11-17T20:41:30.223Z,20.37
2022-11-17T20:43:58.830Z,19.13
2022-11-17T20:46:26.353Z,19.90
2022-11-17T20:48:53.663Z,20.57
2022-11-17T20:51:23.315Z,22.50
2022-11-17T20:53:51.011Z,21.87
2022-11-17T20:56:18.839Z,19.87
2022-11-17T20:58:45.814Z,20.37
2022-11-17T21:01:20.675Z,19.77
2022-11-17T21:03:47.861Z,19.47
2022-11-17T21:06:16.014Z,18.73
2022-11-17T21:08:44.816Z,18.83
2022-11-17T21:11:32.905Z,20.23
2022-11-17T21:14:00.686Z,17.27
2022-11-17T21:16:27.871Z,19.03
2022-11-17T21:18:58.082Z,23.20
2022-11-17T21:21:28.923Z,21.77
2022-11-17T21:23:57.537Z,20.23
2022-11-17T21:26:24.797Z,19.60
2022-11-17T21:28:52.246Z,18.97
2022-11-17T21:31:22.322Z,18.20
2022-11-17T21:33:53.846Z,18.80
2022-11-17T21:36:22.201Z,19.67
2022-11-17T21:38:49.438Z,20.13
2022-11-17T21:41:25.178Z,20.87
2022-11-17T21:43:53.359Z,21.93
2022-11-17T21:46:25.031Z,21.83
2022-11-17T21:48:52.991Z,21.30
2022-11-17T21:51:35.355Z,19.30
2022-11-17T21:54:04.457Z,20.67
2022-11-17T21:56:32.229Z,21.40
2022-11-17T21:59:01.987Z,20.17
2022-11-17T22:01:29.656Z,19.57
2022-11-17T22:03:56.791Z,21.57
2022-11-17T22:06:25.611Z,19.97
2022-11-17T22:08:54.265Z,19.83
2022-11-17T22:11:36.717Z,19.27
2022-11-17T22:14:13.093Z,18.57
2022-11-17T22:16:45.839Z,18.50
2022-11-17T22:19:14.579Z,18.07
2022-11-17T22:21:43.091Z,19.13
2022-11-17T22:24:12.275Z,18.83
2022-11-17T22:26:41.327Z,16.83
2022-11-17T22:29:15.547Z,17.87
2022-11-17T22:31:42.922Z,16.10
2022-11-17T22:34:10.031Z,16.77
2022-11-17T22:36:36.874Z,17.93
2022-11-17T22:39:04.160Z,15.27
2022-11-17T22:41:31.381Z,16.97
2022-11-17T22:43:58.711Z,16.47
2022-11-17T22:46:28.058Z,16.10
2022-11-17T22:48:55.069Z,15.80
2022-11-17T22:51:40.579Z,16.30
2022-11-17T22:54:08.164Z,16.63
2022-11-17T22:56:35.944Z,15.53
2022-11-17T22:59:02.952Z,16.43
2022-11-17T23:01:29.831Z,16.20
2022-11-17T23:03:56.659Z,16.43
2022-11-17T23:06:24.276Z,17.37
2022-11-17T23:08:51.217Z,18.63
2022-11-17T23:14:08.022Z,17.73
2022-11-17T23:16:35.944Z,16.63
2022-11-17T23:19:03.720Z,17.30
2022-11-17T23:21:30.583Z,16.77
2022-11-17T23:23:57.403Z,17.37
2022-11-17T23:26:24.401Z,15.93
2022-11-17T23:28:51.270Z,17.80
2022-11-17T23:31:18.499Z,16.73
2022-11-17T23:33:47.347Z,16.87
2022-11-17T23:36:19.961Z,17.27
2022-11-17T23:38:48.282Z,16.23
2022-11-17T23:41:17.144Z,16.73
2022-11-17T23:43:43.984Z,17.43
2022-11-17T23:46:15.109Z,17.97
2022-11-17T23:48:43.012Z,16.30
2022-11-17T23:51:18.827Z,15.63
2022-11-17T23:53:46.965Z,23.97
2022-11-17T23:56:13.879Z,20.03
2022-11-17T23:58:41.328Z,18.77
